LFAT/LTQ METAR and TAF weather

Enter ICAO airport designator
Station Type Date Time Source
LFAT METAR 2021/09/16 10:00 UTC NOAA

LFAT 161000Z AUTO 25004KT 200V290 9999 SCT015 19/16 Q1019 NOSIG


Station Type Date Time Source
LFAT Decoded METAR 2021/09/16 10:00 UTC NOAA

Le Touquet, France (LFAT) 50-31N 001-37E 14M
Sep 16, 2021 - 06:00 AM EDT / 2021.09.16 1000 UTC
Wind: from the WSW (250 degrees) at 5 MPH (4 KT) (direction variable):0
Visibility: greater than 7 mile(s):0
Sky conditions: partly cloudy
Temperature: 66 F (19 C)
Dew Point: 60 F (16 C)
Relative Humidity: 82%
Pressure (altimeter): 30.09 in. Hg (1019 hPa)
ob: LFAT 161000Z AUTO 25004KT 200V290 9999 SCT015 19/16 Q1019 NOSIG
cycle: 10

Station Type Date Time Source
LFAT TAF 2018/07/14 09:21 UTC NOAA

TAF TAF LFAT 140800Z 1409/1421 09004KT 8000 NSC
BECMG 1409/1411 30010KT

Example: see airport list